sensor_id;sensor_type;location;lat;lon;timestamp;P1;durP1;ratioP1;P2;durP2;ratioP2
68192;SDS011;55012;47.562;18.414;2023-03-24T00:00:08;12.75;;;7.80;;
68192;SDS011;55012;47.562;18.414;2023-03-24T00:02:36;19.08;;;7.68;;
68192;SDS011;55012;47.562;18.414;2023-03-24T00:05:06;17.25;;;8.45;;
68192;SDS011;55012;47.562;18.414;2023-03-24T00:07:36;15.18;;;8.55;;
68192;SDS011;55012;47.562;18.414;2023-03-24T00:10:04;18.58;;;8.50;;
68192;SDS011;55012;47.562;18.414;2023-03-24T00:12:33;16.65;;;8.63;;
68192;SDS011;55012;47.562;18.414;2023-03-24T00:15:02;20.05;;;9.13;;
68192;SDS011;55012;47.562;18.414;2023-03-24T00:17:32;13.32;;;8.00;;
68192;SDS011;55012;47.562;18.414;2023-03-24T00:20:00;15.27;;;9.32;;
68192;SDS011;55012;47.562;18.414;2023-03-24T00:22:31;17.40;;;8.82;;
68192;SDS011;55012;47.562;18.414;2023-03-24T00:24:57;14.55;;;8.63;;
68192;SDS011;55012;47.562;18.414;2023-03-24T00:27:22;16.85;;;8.35;;
68192;SDS011;55012;47.562;18.414;2023-03-24T00:29:48;17.23;;;8.30;;
68192;SDS011;55012;47.562;18.414;2023-03-24T00:32:13;15.15;;;7.70;;
68192;SDS011;55012;47.562;18.414;2023-03-24T00:34:39;16.40;;;7.93;;
68192;SDS011;55012;47.562;18.414;2023-03-24T00:37:07;14.98;;;8.73;;
68192;SDS011;55012;47.562;18.414;2023-03-24T00:39:33;15.50;;;8.38;;
68192;SDS011;55012;47.562;18.414;2023-03-24T00:41:59;17.52;;;8.18;;
68192;SDS011;55012;47.562;18.414;2023-03-24T00:44:26;20.30;;;7.95;;
68192;SDS011;55012;47.562;18.414;2023-03-24T00:46:52;16.15;;;8.80;;
68192;SDS011;55012;47.562;18.414;2023-03-24T00:49:24;21.55;;;8.70;;
68192;SDS011;55012;47.562;18.414;2023-03-24T00:52:11;14.95;;;7.95;;
68192;SDS011;55012;47.562;18.414;2023-03-24T00:54:39;14.98;;;8.55;;
68192;SDS011;55012;47.562;18.414;2023-03-24T00:57:08;17.17;;;8.25;;
68192;SDS011;55012;47.562;18.414;2023-03-24T00:59:37;14.48;;;8.00;;
68192;SDS011;55012;47.562;18.414;2023-03-24T01:02:07;15.10;;;8.05;;
68192;SDS011;55012;47.562;18.414;2023-03-24T01:04:36;15.27;;;7.85;;
68192;SDS011;55012;47.562;18.414;2023-03-24T01:07:02;19.40;;;8.27;;
68192;SDS011;55012;47.562;18.414;2023-03-24T01:09:28;14.75;;;7.80;;
68192;SDS011;55012;47.562;18.414;2023-03-24T01:11:53;14.35;;;8.15;;
68192;SDS011;55012;47.562;18.414;2023-03-24T01:14:20;15.05;;;8.30;;
68192;SDS011;55012;47.562;18.414;2023-03-24T01:16:45;13.30;;;7.53;;
68192;SDS011;55012;47.562;18.414;2023-03-24T01:19:11;13.35;;;7.85;;
68192;SDS011;55012;47.562;18.414;2023-03-24T01:21:39;13.80;;;7.43;;
68192;SDS011;55012;47.562;18.414;2023-03-24T01:24:06;18.60;;;7.63;;
68192;SDS011;55012;47.562;18.414;2023-03-24T01:26:32;15.52;;;8.13;;
68192;SDS011;55012;47.562;18.414;2023-03-24T01:28:58;13.50;;;7.63;;
68192;SDS011;55012;47.562;18.414;2023-03-24T01:31:23;15.68;;;8.55;;
68192;SDS011;55012;47.562;18.414;2023-03-24T01:33:49;13.50;;;7.93;;
68192;SDS011;55012;47.562;18.414;2023-03-24T01:36:14;14.93;;;7.90;;
68192;SDS011;55012;47.562;18.414;2023-03-24T01:38:40;16.90;;;8.07;;
68192;SDS011;55012;47.562;18.414;2023-03-24T01:41:06;15.23;;;8.07;;
68192;SDS011;55012;47.562;18.414;2023-03-24T01:43:32;15.07;;;8.38;;
68192;SDS011;55012;47.562;18.414;2023-03-24T01:46:06;12.65;;;8.23;;
68192;SDS011;55012;47.562;18.414;2023-03-24T01:48:41;14.98;;;8.15;;
68192;SDS011;55012;47.562;18.414;2023-03-24T01:59:31;14.20;;;8.65;;
68192;SDS011;55012;47.562;18.414;2023-03-24T02:01:59;14.40;;;8.52;;
68192;SDS011;55012;47.562;18.414;2023-03-24T02:04:29;16.65;;;8.52;;
68192;SDS011;55012;47.562;18.414;2023-03-24T02:07:00;15.88;;;9.25;;
68192;SDS011;55012;47.562;18.414;2023-03-24T02:09:48;15.23;;;8.73;;
68192;SDS011;55012;47.562;18.414;2023-03-24T02:12:14;14.40;;;8.60;;
68192;SDS011;55012;47.562;18.414;2023-03-24T02:14:40;15.70;;;9.30;;
68192;SDS011;55012;47.562;18.414;2023-03-24T02:17:31;14.57;;;8.73;;
68192;SDS011;55012;47.562;18.414;2023-03-24T02:28:54;15.40;;;9.23;;
68192;SDS011;55012;47.562;18.414;2023-03-24T02:49:15;17.13;;;9.80;;
68192;SDS011;55012;47.562;18.414;2023-03-24T02:54:39;15.57;;;9.45;;
68192;SDS011;55012;47.562;18.414;2023-03-24T02:57:15;18.52;;;10.30;;
68192;SDS011;55012;47.562;18.414;2023-03-24T02:59:48;20.05;;;10.73;;
68192;SDS011;55012;47.562;18.414;2023-03-24T03:02:22;19.63;;;10.63;;
68192;SDS011;55012;47.562;18.414;2023-03-24T03:04:54;23.88;;;10.68;;
68192;SDS011;55012;47.562;18.414;2023-03-24T03:07:25;19.05;;;11.10;;
68192;SDS011;55012;47.562;18.414;2023-03-24T03:09:59;18.63;;;10.90;;
68192;SDS011;55012;47.562;18.414;2023-03-24T03:12:35;18.77;;;11.02;;
68192;SDS011;55012;47.562;18.414;2023-03-24T03:15:05;19.40;;;10.80;;
68192;SDS011;55012;47.562;18.414;2023-03-24T03:17:38;20.00;;;10.77;;
68192;SDS011;55012;47.562;18.414;2023-03-24T03:20:15;21.05;;;11.40;;
68192;SDS011;55012;47.562;18.414;2023-03-24T03:22:48;19.05;;;10.75;;
68192;SDS011;55012;47.562;18.414;2023-03-24T03:25:17;19.35;;;10.90;;
68192;SDS011;55012;47.562;18.414;2023-03-24T03:27:48;22.55;;;11.05;;
68192;SDS011;55012;47.562;18.414;2023-03-24T03:30:21;18.83;;;11.18;;
68192;SDS011;55012;47.562;18.414;2023-03-24T03:32:55;20.88;;;11.18;;
68192;SDS011;55012;47.562;18.414;2023-03-24T03:38:24;22.63;;;12.05;;
68192;SDS011;55012;47.562;18.414;2023-03-24T03:40:59;23.92;;;11.27;;
68192;SDS011;55012;47.562;18.414;2023-03-24T03:43:27;24.67;;;11.98;;
68192;SDS011;55012;47.562;18.414;2023-03-24T03:45:55;20.90;;;11.23;;
68192;SDS011;55012;47.562;18.414;2023-03-24T03:48:22;21.48;;;11.98;;
68192;SDS011;55012;47.562;18.414;2023-03-24T03:50:50;21.17;;;11.63;;
68192;SDS011;55012;47.562;18.414;2023-03-24T03:53:18;22.90;;;12.35;;
68192;SDS011;55012;47.562;18.414;2023-03-24T03:55:47;20.88;;;11.32;;
68192;SDS011;55012;47.562;18.414;2023-03-24T03:58:13;23.80;;;11.70;;
68192;SDS011;55012;47.562;18.414;2023-03-24T04:00:38;20.73;;;12.00;;
68192;SDS011;55012;47.562;18.414;2023-03-24T04:03:13;23.80;;;12.73;;
68192;SDS011;55012;47.562;18.414;2023-03-24T04:08:50;24.63;;;12.18;;
68192;SDS011;55012;47.562;18.414;2023-03-24T04:11:23;27.75;;;12.63;;
68192;SDS011;55012;47.562;18.414;2023-03-24T04:14:05;22.80;;;12.05;;
68192;SDS011;55012;47.562;18.414;2023-03-24T04:27:57;20.40;;;11.85;;
68192;SDS011;55012;47.562;18.414;2023-03-24T04:30:51;22.80;;;12.40;;
68192;SDS011;55012;47.562;18.414;2023-03-24T04:33:25;23.35;;;12.65;;
68192;SDS011;55012;47.562;18.414;2023-03-24T04:35:59;20.77;;;12.20;;
68192;SDS011;55012;47.562;18.414;2023-03-24T04:38:51;24.88;;;12.60;;
68192;SDS011;55012;47.562;18.414;2023-03-24T04:41:22;26.92;;;13.63;;
68192;SDS011;55012;47.562;18.414;2023-03-24T04:43:51;21.42;;;12.77;;
68192;SDS011;55012;47.562;18.414;2023-03-24T04:46:19;25.45;;;12.98;;
68192;SDS011;55012;47.562;18.414;2023-03-24T04:48:46;28.60;;;14.18;;
68192;SDS011;55012;47.562;18.414;2023-03-24T04:51:15;24.85;;;13.75;;
68192;SDS011;55012;47.562;18.414;2023-03-24T04:53:45;24.08;;;13.60;;
68192;SDS011;55012;47.562;18.414;2023-03-24T04:59:17;25.50;;;14.55;;
68192;SDS011;55012;47.562;18.414;2023-03-24T05:01:42;28.55;;;13.32;;
68192;SDS011;55012;47.562;18.414;2023-03-24T05:04:14;24.23;;;13.77;;
68192;SDS011;55012;47.562;18.414;2023-03-24T05:06:40;30.60;;;13.90;;
68192;SDS011;55012;47.562;18.414;2023-03-24T05:09:06;23.65;;;13.85;;
68192;SDS011;55012;47.562;18.414;2023-03-24T05:11:32;28.80;;;14.32;;
68192;SDS011;55012;47.562;18.414;2023-03-24T05:13:57;24.23;;;13.38;;
68192;SDS011;55012;47.562;18.414;2023-03-24T05:16:23;25.67;;;13.77;;
68192;SDS011;55012;47.562;18.414;2023-03-24T05:18:48;25.13;;;14.25;;
68192;SDS011;55012;47.562;18.414;2023-03-24T05:21:14;23.45;;;13.50;;
68192;SDS011;55012;47.562;18.414;2023-03-24T05:23:39;28.35;;;14.00;;
68192;SDS011;55012;47.562;18.414;2023-03-24T05:26:05;27.55;;;14.23;;
68192;SDS011;55012;47.562;18.414;2023-03-24T05:28:31;32.40;;;14.20;;
68192;SDS011;55012;47.562;18.414;2023-03-24T05:30:56;27.85;;;14.35;;
68192;SDS011;55012;47.562;18.414;2023-03-24T05:33:22;29.95;;;14.43;;
68192;SDS011;55012;47.562;18.414;2023-03-24T05:35:47;28.08;;;14.63;;
68192;SDS011;55012;47.562;18.414;2023-03-24T05:38:13;27.35;;;14.32;;
68192;SDS011;55012;47.562;18.414;2023-03-24T05:40:38;26.90;;;15.07;;
68192;SDS011;55012;47.562;18.414;2023-03-24T05:43:05;27.50;;;15.13;;
68192;SDS011;55012;47.562;18.414;2023-03-24T05:45:32;27.67;;;14.85;;
68192;SDS011;55012;47.562;18.414;2023-03-24T05:47:58;27.67;;;14.43;;
68192;SDS011;55012;47.562;18.414;2023-03-24T05:50:23;30.88;;;14.23;;
68192;SDS011;55012;47.562;18.414;2023-03-24T05:52:49;31.50;;;15.32;;
68192;SDS011;55012;47.562;18.414;2023-03-24T05:55:15;31.90;;;15.38;;
68192;SDS011;55012;47.562;18.414;2023-03-24T05:57:40;33.33;;;15.15;;
68192;SDS011;55012;47.562;18.414;2023-03-24T06:00:07;23.75;;;14.43;;
68192;SDS011;55012;47.562;18.414;2023-03-24T06:02:39;27.23;;;13.88;;
68192;SDS011;55012;47.562;18.414;2023-03-24T06:05:05;28.38;;;14.73;;
68192;SDS011;55012;47.562;18.414;2023-03-24T06:07:32;25.60;;;14.80;;
68192;SDS011;55012;47.562;18.414;2023-03-24T06:09:58;30.65;;;15.32;;
68192;SDS011;55012;47.562;18.414;2023-03-24T06:12:28;29.90;;;15.02;;
68192;SDS011;55012;47.562;18.414;2023-03-24T06:14:55;27.90;;;15.27;;
68192;SDS011;55012;47.562;18.414;2023-03-24T06:17:21;26.80;;;14.70;;
68192;SDS011;55012;47.562;18.414;2023-03-24T06:19:48;32.17;;;14.98;;
68192;SDS011;55012;47.562;18.414;2023-03-24T06:22:18;29.85;;;14.88;;
68192;SDS011;55012;47.562;18.414;2023-03-24T06:24:44;29.77;;;14.95;;
68192;SDS011;55012;47.562;18.414;2023-03-24T06:27:14;36.20;;;15.32;;
68192;SDS011;55012;47.562;18.414;2023-03-24T06:29:39;31.08;;;14.88;;
68192;SDS011;55012;47.562;18.414;2023-03-24T06:32:08;31.92;;;15.45;;
68192;SDS011;55012;47.562;18.414;2023-03-24T06:34:35;30.40;;;15.00;;
68192;SDS011;55012;47.562;18.414;2023-03-24T06:37:03;39.70;;;15.13;;
68192;SDS011;55012;47.562;18.414;2023-03-24T06:39:28;28.75;;;13.73;;
68192;SDS011;55012;47.562;18.414;2023-03-24T06:41:54;29.92;;;15.15;;
68192;SDS011;55012;47.562;18.414;2023-03-24T06:44:20;38.15;;;15.55;;
68192;SDS011;55012;47.562;18.414;2023-03-24T06:46:45;30.70;;;14.52;;
68192;SDS011;55012;47.562;18.414;2023-03-24T06:49:11;32.63;;;14.68;;
68192;SDS011;55012;47.562;18.414;2023-03-24T06:51:36;31.63;;;15.27;;
68192;SDS011;55012;47.562;18.414;2023-03-24T06:54:02;39.80;;;15.52;;
68192;SDS011;55012;47.562;18.414;2023-03-24T06:56:28;33.22;;;13.95;;
68192;SDS011;55012;47.562;18.414;2023-03-24T06:58:54;40.92;;;15.07;;
68192;SDS011;55012;47.562;18.414;2023-03-24T07:01:21;30.10;;;13.43;;
68192;SDS011;55012;47.562;18.414;2023-03-24T07:03:46;28.20;;;14.35;;
68192;SDS011;55012;47.562;18.414;2023-03-24T07:06:12;28.05;;;13.82;;
68192;SDS011;55012;47.562;18.414;2023-03-24T07:08:37;30.05;;;13.95;;
68192;SDS011;55012;47.562;18.414;2023-03-24T07:11:04;28.92;;;13.88;;
68192;SDS011;55012;47.562;18.414;2023-03-24T07:13:31;36.90;;;15.52;;
68192;SDS011;55012;47.562;18.414;2023-03-24T07:15:57;27.00;;;13.52;;
68192;SDS011;55012;47.562;18.414;2023-03-24T07:18:22;27.77;;;13.57;;
68192;SDS011;55012;47.562;18.414;2023-03-24T07:20:48;29.23;;;13.27;;
68192;SDS011;55012;47.562;18.414;2023-03-24T07:23:13;31.55;;;14.20;;
68192;SDS011;55012;47.562;18.414;2023-03-24T07:25:39;27.42;;;13.60;;
68192;SDS011;55012;47.562;18.414;2023-03-24T07:28:05;27.08;;;13.90;;
68192;SDS011;55012;47.562;18.414;2023-03-24T07:30:32;26.25;;;14.00;;
68192;SDS011;55012;47.562;18.414;2023-03-24T07:33:00;26.85;;;13.77;;
68192;SDS011;55012;47.562;18.414;2023-03-24T07:35:27;30.00;;;13.95;;
68192;SDS011;55012;47.562;18.414;2023-03-24T07:37:56;25.73;;;14.32;;
68192;SDS011;55012;47.562;18.414;2023-03-24T07:40:22;25.52;;;14.95;;
68192;SDS011;55012;47.562;18.414;2023-03-24T07:42:47;31.08;;;15.45;;
68192;SDS011;55012;47.562;18.414;2023-03-24T07:45:13;29.48;;;16.08;;
68192;SDS011;55012;47.562;18.414;2023-03-24T07:47:41;27.58;;;15.23;;
68192;SDS011;55012;47.562;18.414;2023-03-24T07:50:08;23.40;;;13.80;;
68192;SDS011;55012;47.562;18.414;2023-03-24T07:52:38;20.38;;;11.98;;
68192;SDS011;55012;47.562;18.414;2023-03-24T07:55:06;18.25;;;11.80;;
68192;SDS011;55012;47.562;18.414;2023-03-24T07:57:34;17.27;;;11.15;;
68192;SDS011;55012;47.562;18.414;2023-03-24T08:00:04;18.27;;;11.90;;
68192;SDS011;55012;47.562;18.414;2023-03-24T08:02:42;21.33;;;11.43;;
68192;SDS011;55012;47.562;18.414;2023-03-24T08:05:08;23.20;;;12.07;;
68192;SDS011;55012;47.562;18.414;2023-03-24T08:07:42;19.10;;;11.57;;
68192;SDS011;55012;47.562;18.414;2023-03-24T08:10:12;20.50;;;11.70;;
68192;SDS011;55012;47.562;18.414;2023-03-24T08:12:39;18.05;;;11.82;;
68192;SDS011;55012;47.562;18.414;2023-03-24T08:15:05;18.63;;;11.50;;
68192;SDS011;55012;47.562;18.414;2023-03-24T08:17:32;19.20;;;12.52;;
68192;SDS011;55012;47.562;18.414;2023-03-24T08:19:57;28.95;;;16.23;;
68192;SDS011;55012;47.562;18.414;2023-03-24T08:22:23;18.92;;;12.23;;
68192;SDS011;55012;47.562;18.414;2023-03-24T08:24:48;21.52;;;13.93;;
68192;SDS011;55012;47.562;18.414;2023-03-24T08:27:14;21.50;;;12.60;;
68192;SDS011;55012;47.562;18.414;2023-03-24T08:29:41;21.42;;;13.07;;
68192;SDS011;55012;47.562;18.414;2023-03-24T08:32:06;23.38;;;14.07;;
68192;SDS011;55012;47.562;18.414;2023-03-24T08:34:32;29.25;;;14.90;;
68192;SDS011;55012;47.562;18.414;2023-03-24T08:36:57;22.02;;;14.38;;
68192;SDS011;55012;47.562;18.414;2023-03-24T08:39:23;21.48;;;12.55;;
68192;SDS011;55012;47.562;18.414;2023-03-24T08:41:48;20.58;;;12.40;;
68192;SDS011;55012;47.562;18.414;2023-03-24T08:44:14;19.75;;;12.45;;
68192;SDS011;55012;47.562;18.414;2023-03-24T08:46:41;21.15;;;12.48;;
68192;SDS011;55012;47.562;18.414;2023-03-24T08:49:06;22.08;;;13.00;;
68192;SDS011;55012;47.562;18.414;2023-03-24T08:51:32;18.67;;;12.35;;
68192;SDS011;55012;47.562;18.414;2023-03-24T08:53:58;20.02;;;12.68;;
68192;SDS011;55012;47.562;18.414;2023-03-24T08:56:27;18.88;;;13.23;;
68192;SDS011;55012;47.562;18.414;2023-03-24T08:58:53;19.27;;;11.73;;
68192;SDS011;55012;47.562;18.414;2023-03-24T09:01:19;18.88;;;11.38;;
68192;SDS011;55012;47.562;18.414;2023-03-24T09:03:46;16.80;;;11.13;;
68192;SDS011;55012;47.562;18.414;2023-03-24T09:06:12;18.10;;;11.07;;
68192;SDS011;55012;47.562;18.414;2023-03-24T09:08:39;18.52;;;11.40;;
68192;SDS011;55012;47.562;18.414;2023-03-24T09:11:05;16.33;;;10.43;;
68192;SDS011;55012;47.562;18.414;2023-03-24T09:13:31;14.25;;;9.43;;
68192;SDS011;55012;47.562;18.414;2023-03-24T09:15:58;15.25;;;8.95;;
68192;SDS011;55012;47.562;18.414;2023-03-24T09:18:26;19.48;;;9.45;;
68192;SDS011;55012;47.562;18.414;2023-03-24T09:20:52;16.20;;;9.93;;
68192;SDS011;55012;47.562;18.414;2023-03-24T09:23:18;18.98;;;9.93;;
68192;SDS011;55012;47.562;18.414;2023-03-24T09:25:46;13.18;;;8.60;;
68192;SDS011;55012;47.562;18.414;2023-03-24T09:28:13;13.80;;;8.85;;
68192;SDS011;55012;47.562;18.414;2023-03-24T09:30:40;12.50;;;8.63;;
68192;SDS011;55012;47.562;18.414;2023-03-24T09:33:06;17.40;;;8.05;;
68192;SDS011;55012;47.562;18.414;2023-03-24T09:35:32;13.88;;;8.55;;
68192;SDS011;55012;47.562;18.414;2023-03-24T09:37:58;11.98;;;7.95;;
68192;SDS011;55012;47.562;18.414;2023-03-24T09:40:24;13.57;;;7.97;;
68192;SDS011;55012;47.562;18.414;2023-03-24T09:45:49;11.68;;;7.93;;
68192;SDS011;55012;47.562;18.414;2023-03-24T09:48:18;17.35;;;8.27;;
68192;SDS011;55012;47.562;18.414;2023-03-24T09:50:57;11.95;;;8.52;;
68192;SDS011;55012;47.562;18.414;2023-03-24T09:56:17;12.20;;;8.38;;
68192;SDS011;55012;47.562;18.414;2023-03-24T09:58:47;14.80;;;8.63;;
68192;SDS011;55012;47.562;18.414;2023-03-24T10:01:17;15.10;;;8.23;;
68192;SDS011;55012;47.562;18.414;2023-03-24T10:03:43;12.48;;;7.80;;
68192;SDS011;55012;47.562;18.414;2023-03-24T10:08:42;12.57;;;8.10;;
68192;SDS011;55012;47.562;18.414;2023-03-24T10:11:36;16.63;;;7.88;;
68192;SDS011;55012;47.562;18.414;2023-03-24T10:16:45;14.00;;;8.05;;
68192;SDS011;55012;47.562;18.414;2023-03-24T10:25:09;15.68;;;7.07;;
68192;SDS011;55012;47.562;18.414;2023-03-24T10:27:49;14.88;;;7.30;;
68192;SDS011;55012;47.562;18.414;2023-03-24T10:30:27;12.32;;;6.95;;
68192;SDS011;55012;47.562;18.414;2023-03-24T10:32:56;13.43;;;7.03;;
68192;SDS011;55012;47.562;18.414;2023-03-24T10:37:47;12.02;;;6.50;;
68192;SDS011;55012;47.562;18.414;2023-03-24T10:40:15;12.07;;;6.32;;
68192;SDS011;55012;47.562;18.414;2023-03-24T10:42:43;14.20;;;7.22;;
68192;SDS011;55012;47.562;18.414;2023-03-24T10:45:12;10.75;;;6.40;;
68192;SDS011;55012;47.562;18.414;2023-03-24T10:47:44;10.77;;;6.28;;
68192;SDS011;55012;47.562;18.414;2023-03-24T10:50:11;13.70;;;6.10;;
68192;SDS011;55012;47.562;18.414;2023-03-24T10:52:38;11.63;;;6.20;;
68192;SDS011;55012;47.562;18.414;2023-03-24T10:55:05;12.38;;;6.65;;
68192;SDS011;55012;47.562;18.414;2023-03-24T10:57:31;13.93;;;6.60;;
68192;SDS011;55012;47.562;18.414;2023-03-24T11:02:42;14.48;;;6.72;;
68192;SDS011;55012;47.562;18.414;2023-03-24T11:07:41;10.15;;;6.30;;
68192;SDS011;55012;47.562;18.414;2023-03-24T11:17:45;12.95;;;6.20;;
68192;SDS011;55012;47.562;18.414;2023-03-24T11:20:24;13.90;;;6.65;;
68192;SDS011;55012;47.562;18.414;2023-03-24T11:22:56;11.23;;;6.85;;
68192;SDS011;55012;47.562;18.414;2023-03-24T11:25:29;16.15;;;6.55;;
68192;SDS011;55012;47.562;18.414;2023-03-24T11:28:02;13.60;;;6.55;;
68192;SDS011;55012;47.562;18.414;2023-03-24T11:30:54;13.75;;;6.75;;
68192;SDS011;55012;47.562;18.414;2023-03-24T11:33:29;17.52;;;6.55;;
68192;SDS011;55012;47.562;18.414;2023-03-24T11:36:00;12.52;;;6.93;;
68192;SDS011;55012;47.562;18.414;2023-03-24T11:38:31;12.20;;;6.10;;
68192;SDS011;55012;47.562;18.414;2023-03-24T11:40:59;10.95;;;6.22;;
68192;SDS011;55012;47.562;18.414;2023-03-24T11:43:29;10.57;;;6.53;;
68192;SDS011;55012;47.562;18.414;2023-03-24T11:45:56;12.50;;;6.22;;
68192;SDS011;55012;47.562;18.414;2023-03-24T11:48:34;11.95;;;5.90;;
68192;SDS011;55012;47.562;18.414;2023-03-24T11:51:05;16.55;;;6.15;;
68192;SDS011;55012;47.562;18.414;2023-03-24T11:53:46;12.40;;;5.72;;
68192;SDS011;55012;47.562;18.414;2023-03-24T11:59:03;12.05;;;7.20;;
68192;SDS011;55012;47.562;18.414;2023-03-24T12:01:32;10.90;;;6.72;;
68192;SDS011;55012;47.562;18.414;2023-03-24T12:17:39;13.32;;;5.93;;
68192;SDS011;55012;47.562;18.414;2023-03-24T12:22:44;13.00;;;7.13;;
68192;SDS011;55012;47.562;18.414;2023-03-24T12:35:54;9.80;;;6.03;;
68192;SDS011;55012;47.562;18.414;2023-03-24T12:38:38;9.77;;;5.18;;
68192;SDS011;55012;47.562;18.414;2023-03-24T12:53:05;7.80;;;4.43;;
68192;SDS011;55012;47.562;18.414;2023-03-24T12:55:41;8.27;;;4.35;;
68192;SDS011;55012;47.562;18.414;2023-03-24T12:58:33;10.43;;;4.90;;
68192;SDS011;55012;47.562;18.414;2023-03-24T13:03:47;7.25;;;4.80;;
68192;SDS011;55012;47.562;18.414;2023-03-24T13:06:23;9.60;;;4.22;;
68192;SDS011;55012;47.562;18.414;2023-03-24T13:11:42;10.65;;;4.80;;
68192;SDS011;55012;47.562;18.414;2023-03-24T13:14:15;6.88;;;4.28;;
68192;SDS011;55012;47.562;18.414;2023-03-24T13:16:47;10.98;;;5.38;;
68192;SDS011;55012;47.562;18.414;2023-03-24T13:19:22;8.73;;;4.47;;
68192;SDS011;55012;47.562;18.414;2023-03-24T13:21:49;7.28;;;4.43;;
68192;SDS011;55012;47.562;18.414;2023-03-24T13:24:18;12.65;;;4.57;;
68192;SDS011;55012;47.562;18.414;2023-03-24T13:35:35;8.00;;;4.60;;
68192;SDS011;55012;47.562;18.414;2023-03-24T13:38:33;6.60;;;4.00;;
68192;SDS011;55012;47.562;18.414;2023-03-24T13:40:48;7.47;;;4.03;;
68192;SDS011;55012;47.562;18.414;2023-03-24T13:43:17;8.80;;;4.70;;
68192;SDS011;55012;47.562;18.414;2023-03-24T13:45:49;6.43;;;4.00;;
68192;SDS011;55012;47.562;18.414;2023-03-24T13:48:18;11.38;;;4.18;;
68192;SDS011;55012;47.562;18.414;2023-03-24T13:50:57;7.25;;;4.07;;
68192;SDS011;55012;47.562;18.414;2023-03-24T13:56:03;13.75;;;6.00;;
68192;SDS011;55012;47.562;18.414;2023-03-24T13:58:50;8.77;;;4.72;;
68192;SDS011;55012;47.562;18.414;2023-03-24T14:01:32;11.77;;;6.30;;
68192;SDS011;55012;47.562;18.414;2023-03-24T14:06:56;8.45;;;4.68;;
68192;SDS011;55012;47.562;18.414;2023-03-24T14:09:26;8.15;;;4.65;;
68192;SDS011;55012;47.562;18.414;2023-03-24T14:14:22;5.93;;;4.20;;
68192;SDS011;55012;47.562;18.414;2023-03-24T14:19:30;10.32;;;5.80;;
68192;SDS011;55012;47.562;18.414;2023-03-24T14:24:37;7.38;;;4.97;;
68192;SDS011;55012;47.562;18.414;2023-03-24T14:29:51;8.27;;;4.60;;
68192;SDS011;55012;47.562;18.414;2023-03-24T14:32:18;10.27;;;6.10;;
68192;SDS011;55012;47.562;18.414;2023-03-24T14:34:50;9.05;;;4.97;;
68192;SDS011;55012;47.562;18.414;2023-03-24T14:37:22;13.77;;;4.97;;
68192;SDS011;55012;47.562;18.414;2023-03-24T14:39:49;8.15;;;4.10;;
68192;SDS011;55012;47.562;18.414;2023-03-24T14:44:57;6.05;;;4.57;;
68192;SDS011;55012;47.562;18.414;2023-03-24T14:47:31;5.45;;;4.07;;
68192;SDS011;55012;47.562;18.414;2023-03-24T14:50:00;7.85;;;5.13;;
68192;SDS011;55012;47.562;18.414;2023-03-24T14:52:36;11.90;;;4.90;;
68192;SDS011;55012;47.562;18.414;2023-03-24T14:55:11;6.15;;;4.57;;
68192;SDS011;55012;47.562;18.414;2023-03-24T15:05:36;6.10;;;4.80;;
68192;SDS011;55012;47.562;18.414;2023-03-24T15:10:41;8.70;;;5.22;;
68192;SDS011;55012;47.562;18.414;2023-03-24T15:13:33;7.75;;;5.10;;
68192;SDS011;55012;47.562;18.414;2023-03-24T15:16:30;6.07;;;4.68;;
68192;SDS011;55012;47.562;18.414;2023-03-24T15:18:58;7.60;;;4.90;;
68192;SDS011;55012;47.562;18.414;2023-03-24T15:21:32;8.65;;;6.15;;
68192;SDS011;55012;47.562;18.414;2023-03-24T15:29:44;7.97;;;4.60;;
68192;SDS011;55012;47.562;18.414;2023-03-24T15:32:17;7.70;;;4.85;;
68192;SDS011;55012;47.562;18.414;2023-03-24T15:34:47;11.27;;;6.05;;
68192;SDS011;55012;47.562;18.414;2023-03-24T15:37:29;8.10;;;5.45;;
68192;SDS011;55012;47.562;18.414;2023-03-24T15:39:57;7.95;;;4.97;;
68192;SDS011;55012;47.562;18.414;2023-03-24T15:42:23;8.63;;;4.63;;
68192;SDS011;55012;47.562;18.414;2023-03-24T15:44:49;11.07;;;6.00;;
68192;SDS011;55012;47.562;18.414;2023-03-24T15:47:21;7.72;;;5.07;;
68192;SDS011;55012;47.562;18.414;2023-03-24T15:49:52;9.43;;;5.50;;
68192;SDS011;55012;47.562;18.414;2023-03-24T15:52:22;8.90;;;4.90;;
68192;SDS011;55012;47.562;18.414;2023-03-24T15:54:48;7.78;;;5.28;;
68192;SDS011;55012;47.562;18.414;2023-03-24T15:57:19;11.73;;;5.43;;
68192;SDS011;55012;47.562;18.414;2023-03-24T16:00:10;6.82;;;4.80;;
68192;SDS011;55012;47.562;18.414;2023-03-24T16:02:55;10.40;;;5.55;;
68192;SDS011;55012;47.562;18.414;2023-03-24T16:05:27;11.50;;;5.28;;
68192;SDS011;55012;47.562;18.414;2023-03-24T16:08:01;7.53;;;4.68;;
68192;SDS011;55012;47.562;18.414;2023-03-24T16:10:36;8.60;;;5.10;;
68192;SDS011;55012;47.562;18.414;2023-03-24T16:13:18;7.70;;;4.93;;
68192;SDS011;55012;47.562;18.414;2023-03-24T16:16:08;10.05;;;5.43;;
68192;SDS011;55012;47.562;18.414;2023-03-24T16:18:37;7.55;;;5.38;;
68192;SDS011;55012;47.562;18.414;2023-03-24T16:21:14;9.25;;;5.90;;
68192;SDS011;55012;47.562;18.414;2023-03-24T16:23:40;9.90;;;6.15;;
68192;SDS011;55012;47.562;18.414;2023-03-24T16:26:11;10.13;;;6.07;;
68192;SDS011;55012;47.562;18.414;2023-03-24T16:28:42;10.05;;;6.13;;
68192;SDS011;55012;47.562;18.414;2023-03-24T16:31:13;9.85;;;5.97;;
68192;SDS011;55012;47.562;18.414;2023-03-24T16:33:57;9.75;;;6.63;;
68192;SDS011;55012;47.562;18.414;2023-03-24T16:36:23;8.57;;;5.95;;
68192;SDS011;55012;47.562;18.414;2023-03-24T16:38:53;9.80;;;5.35;;
68192;SDS011;55012;47.562;18.414;2023-03-24T16:41:19;8.80;;;5.18;;
68192;SDS011;55012;47.562;18.414;2023-03-24T16:43:45;8.75;;;5.03;;
68192;SDS011;55012;47.562;18.414;2023-03-24T16:46:15;7.97;;;4.45;;
68192;SDS011;55012;47.562;18.414;2023-03-24T16:48:43;8.43;;;5.00;;
68192;SDS011;55012;47.562;18.414;2023-03-24T16:51:12;7.18;;;4.70;;
68192;SDS011;55012;47.562;18.414;2023-03-24T16:53:41;6.57;;;4.70;;
68192;SDS011;55012;47.562;18.414;2023-03-24T16:56:09;7.80;;;4.90;;
68192;SDS011;55012;47.562;18.414;2023-03-24T16:58:37;9.20;;;5.07;;
68192;SDS011;55012;47.562;18.414;2023-03-24T17:01:05;9.45;;;5.35;;
68192;SDS011;55012;47.562;18.414;2023-03-24T17:06:13;8.50;;;5.20;;
68192;SDS011;55012;47.562;18.414;2023-03-24T17:08:40;8.73;;;5.22;;
68192;SDS011;55012;47.562;18.414;2023-03-24T17:11:07;7.20;;;5.80;;
68192;SDS011;55012;47.562;18.414;2023-03-24T17:13:34;8.02;;;5.18;;
68192;SDS011;55012;47.562;18.414;2023-03-24T17:15:59;8.95;;;5.63;;
68192;SDS011;55012;47.562;18.414;2023-03-24T17:18:25;7.78;;;5.85;;
68192;SDS011;55012;47.562;18.414;2023-03-24T17:20:50;10.68;;;6.00;;
68192;SDS011;55012;47.562;18.414;2023-03-24T17:23:16;7.95;;;5.22;;
68192;SDS011;55012;47.562;18.414;2023-03-24T17:25:42;7.00;;;4.80;;
68192;SDS011;55012;47.562;18.414;2023-03-24T17:28:12;9.15;;;6.07;;
68192;SDS011;55012;47.562;18.414;2023-03-24T17:30:38;14.73;;;7.03;;
68192;SDS011;55012;47.562;18.414;2023-03-24T17:33:04;19.70;;;10.30;;
68192;SDS011;55012;47.562;18.414;2023-03-24T17:35:30;13.20;;;9.23;;